Time;durP1;ratioP1;P1;durP2;ratioP2;P2;SDS_P1;SDS_P2;PMS_P1;PMS_P2;Temp;Humidity;BMP_temperature;BMP_pressure;BME280_temperature;BME280_humidity;BME280_pressure;Samples;Min_cycle;Max_cycle;Signal;HPM_P1;HPM_P2
2022/10/08 00:00:47;;;;;;;6.15;4.13;;;18.80;99.90;;;;;;5113719;28;20024;-87
2022/10/08 00:03:15;;;;;;;6.78;4.10;;;18.90;99.90;;;;;;5112813;28;20032;-86
2022/10/08 00:05:41;;;;;;;4.10;3.70;;;18.60;99.90;;;;;;5113151;28;20023;-87
2022/10/08 00:08:08;;;;;;;5.90;4.22;;;18.70;99.90;;;;;;5113271;28;20480;-86
2022/10/08 00:10:34;;;;;;;6.55;4.15;;;18.90;99.90;;;;;;5113326;28;20028;-87
2022/10/08 00:13:00;;;;;;;7.40;4.20;;;18.90;99.90;;;;;;5112984;28;20118;-87
2022/10/08 00:15:27;;;;;;;7.15;4.57;;;19.00;99.90;;;;;;5113042;28;20024;-87
2022/10/08 00:17:53;;;;;;;5.35;4.30;;;19.10;99.90;;;;;;5113000;28;20032;-87
2022/10/08 00:20:20;;;;;;;6.05;3.67;;;18.80;99.90;;;;;;5112828;28;20024;-87
2022/10/08 00:22:45;;;;;;;7.70;3.80;;;18.80;99.90;;;;;;5112468;28;20464;-87
2022/10/08 00:25:11;;;;;;;6.13;4.30;;;18.60;99.90;;;;;;5113074;28;20101;-87
2022/10/08 00:27:37;;;;;;;10.65;4.97;;;18.60;99.90;;;;;;5112011;28;20024;-86
2022/10/08 00:30:03;;;;;;;7.60;5.13;;;18.60;99.90;;;;;;5111814;28;20468;-86
2022/10/08 00:32:29;;;;;;;7.45;5.25;;;18.70;99.90;;;;;;5112598;28;20139;-87
2022/10/08 00:34:54;;;;;;;6.07;5.20;;;18.70;99.90;;;;;;5112454;28;20455;-86
2022/10/08 00:37:20;;;;;;;7.75;5.03;;;18.70;99.90;;;;;;5112759;28;20106;-87
2022/10/08 00:39:46;;;;;;;8.80;5.30;;;18.60;99.90;;;;;;5112817;28;20016;-86
2022/10/08 00:42:12;;;;;;;5.20;4.65;;;18.60;99.90;;;;;;5094487;28;20106;-86
2022/10/08 00:44:50;;;;;;;7.32;4.90;;;18.60;99.90;;;;;;5093304;28;20035;-87
2022/10/08 00:47:31;;;;;;;7.05;4.40;;;18.40;99.90;;;;;;5112914;28;20540;-86
2022/10/08 00:50:05;;;;;;;6.75;4.57;;;18.40;99.90;;;;;;5112947;28;20058;-86
2022/10/08 00:52:33;;;;;;;10.07;5.10;;;18.50;99.90;;;;;;5112683;28;20030;-87
2022/10/08 00:55:05;;;;;;;8.88;5.32;;;18.50;99.90;;;;;;5112976;28;20430;-87
2022/10/08 00:57:32;;;;;;;6.78;5.00;;;18.30;99.90;;;;;;5112508;28;20119;-86
2022/10/08 01:00:00;;;;;;;6.47;5.13;;;18.40;99.90;;;;;;5112458;28;20048;-86
2022/10/08 01:02:25;;;;;;;7.78;5.60;;;18.40;99.90;;;;;;5132275;27;20034;-86
2022/10/08 01:04:51;;;;;;;7.55;5.47;;;18.30;99.90;;;;;;5133429;28;20490;-87
2022/10/08 01:07:49;;;;;;;7.97;5.22;;;18.30;99.90;;;;;;5114335;28;20023;-87
2022/10/08 01:10:59;;;;;;;5.70;4.82;;;18.40;99.90;;;;;;5132634;28;20106;-87
2022/10/08 01:13:37;;;;;;;6.72;5.30;;;18.50;99.90;;;;;;5114311;28;20058;-87
2022/10/08 01:16:15;;;;;;;6.45;5.07;;;18.40;99.90;;;;;;5132672;28;20363;-88
2022/10/08 01:19:12;;;;;;;7.30;5.80;;;18.40;99.90;;;;;;5132856;28;20034;-87
2022/10/08 01:21:48;;;;;;;7.65;5.63;;;18.30;99.90;;;;;;5133034;28;20035;-87
2022/10/08 01:27:40;;;;;;;6.60;5.75;;;18.50;99.90;;;;;;5127198;28;20034;-87
2022/10/08 01:30:10;;;;;;;6.93;5.78;;;18.40;99.90;;;;;;5132750;28;20490;-87
2022/10/08 01:32:45;;;;;;;6.32;5.60;;;18.30;99.90;;;;;;5073177;28;20017;-87
2022/10/08 01:35:19;;;;;;;6.68;6.05;;;18.40;99.90;;;;;;5095090;28;20056;-87
2022/10/08 01:37:46;;;;;;;9.38;6.57;;;18.40;99.90;;;;;;5095840;28;20032;-85
2022/10/08 01:40:17;;;;;;;8.13;6.10;;;18.40;99.90;;;;;;5095756;28;20062;-87
2022/10/08 01:42:45;;;;;;;8.15;5.70;;;18.40;99.90;;;;;;5095338;28;20447;-87
2022/10/08 01:45:17;;;;;;;8.18;5.70;;;18.50;99.90;;;;;;5095523;28;20036;-87
2022/10/08 01:47:44;;;;;;;8.02;5.60;;;18.50;99.90;;;;;;5095952;28;20056;-87
2022/10/08 01:50:27;;;;;;;8.52;6.07;;;18.50;99.90;;;;;;5094428;28;20401;-87
2022/10/08 01:52:57;;;;;;;7.90;5.68;;;18.40;99.90;;;;;;5095432;28;20020;-86
2022/10/08 01:55:33;;;;;;;9.10;5.43;;;18.30;99.90;;;;;;5095726;28;20085;-87
2022/10/08 01:58:04;;;;;;;8.50;5.78;;;18.30;99.90;;;;;;5095102;28;20020;-87
2022/10/08 02:00:33;;;;;;;8.88;5.57;;;18.30;99.90;;;;;;5095776;28;20028;-87
2022/10/08 02:02:59;;;;;;;7.03;6.32;;;18.30;99.90;;;;;;5112311;27;20019;-86
2022/10/08 02:05:28;;;;;;;11.98;6.35;;;18.30;99.90;;;;;;5136518;27;20027;-87
2022/10/08 02:07:54;;;;;;;8.32;6.00;;;18.20;99.90;;;;;;5136284;27;20026;-87
2022/10/08 02:10:23;;;;;;;8.63;6.43;;;18.30;99.90;;;;;;5117783;27;20027;-87
2022/10/08 02:12:48;;;;;;;8.20;6.53;;;18.30;99.90;;;;;;5135917;27;20527;-87
2022/10/08 02:15:42;;;;;;;10.30;6.50;;;18.30;99.90;;;;;;5136037;27;20114;-87
2022/10/08 02:18:18;;;;;;;7.07;6.43;;;18.30;99.90;;;;;;5117878;27;20026;-86
2022/10/08 02:20:55;;;;;;;7.88;6.55;;;18.20;99.90;;;;;;5135992;27;20072;-86
2022/10/08 02:23:24;;;;;;;7.18;6.47;;;18.10;99.90;;;;;;5135756;27;20140;-87
2022/10/08 02:25:52;;;;;;;9.48;6.50;;;18.20;99.90;;;;;;5135865;27;20031;-86
2022/10/08 02:28:37;;;;;;;7.10;6.32;;;18.10;99.90;;;;;;5135506;27;20023;-87
2022/10/08 02:31:24;;;;;;;7.13;6.40;;;18.10;99.90;;;;;;5127547;27;20062;-86
2022/10/08 02:33:56;;;;;;;8.30;6.47;;;18.00;99.90;;;;;;5115024;28;20079;-87
2022/10/08 02:36:27;;;;;;;8.90;6.63;;;18.00;99.90;;;;;;5115131;28;20445;-85
2022/10/08 02:38:57;;;;;;;8.50;6.13;;;18.10;99.90;;;;;;5114990;28;20483;-86
2022/10/08 02:41:28;;;;;;;7.90;6.55;;;18.00;99.90;;;;;;5114654;28;20395;-87
2022/10/08 02:43:57;;;;;;;7.80;6.25;;;18.00;99.90;;;;;;5114569;28;20522;-86
2022/10/08 02:46:27;;;;;;;8.30;6.22;;;18.40;99.90;;;;;;5114743;28;20107;-86
2022/10/08 02:49:06;;;;;;;7.22;6.43;;;18.00;99.90;;;;;;5114889;28;20016;-87
2022/10/08 02:51:37;;;;;;;10.23;6.20;;;18.00;99.90;;;;;;5114721;28;20028;-86
2022/10/08 02:54:05;;;;;;;7.57;6.13;;;18.00;99.90;;;;;;5114709;28;20023;-87
2022/10/08 02:56:33;;;;;;;6.82;6.18;;;18.00;99.90;;;;;;5114512;28;20020;-86
2022/10/08 02:58:59;;;;;;;7.07;6.20;;;18.00;99.90;;;;;;5114761;28;20032;-86
2022/10/08 03:01:38;;;;;;;8.52;6.00;;;17.80;99.90;;;;;;5114686;28;20490;-86
2022/10/08 03:04:22;;;;;;;8.13;6.10;;;18.00;99.90;;;;;;5114395;28;20122;-86
2022/10/08 03:06:48;;;;;;;8.00;5.90;;;17.90;99.90;;;;;;5114555;28;20506;-87
2022/10/08 03:09:16;;;;;;;8.23;5.80;;;17.70;99.90;;;;;;5114666;28;20076;-86
2022/10/08 03:11:41;;;;;;;7.38;5.68;;;17.80;99.90;;;;;;5114061;28;20020;-86
2022/10/08 03:14:11;;;;;;;7.88;5.80;;;17.70;99.90;;;;;;5114246;28;20494;-87
2022/10/08 03:16:42;;;;;;;6.68;6.00;;;17.70;99.90;;;;;;5114303;28;20020;-87
2022/10/08 03:19:10;;;;;;;6.22;5.63;;;17.70;99.90;;;;;;5114222;28;20028;-86
2022/10/08 03:21:38;;;;;;;8.93;5.90;;;17.80;99.90;;;;;;5114117;28;20020;-87
2022/10/08 03:24:14;;;;;;;7.47;6.03;;;17.90;99.90;;;;;;5114357;28;20031;-86
2022/10/08 03:26:40;;;;;;;6.78;6.00;;;17.80;99.90;;;;;;5114301;28;20030;-86
2022/10/08 03:29:06;;;;;;;7.88;5.70;;;17.70;99.90;;;;;;5114071;28;20024;-86
2022/10/08 03:31:32;;;;;;;10.32;6.47;;;17.80;99.90;;;;;;5102010;28;20020;-86
2022/10/08 03:33:58;;;;;;;9.57;6.00;;;17.80;99.90;;;;;;5093393;28;20050;-86
2022/10/08 03:36:24;;;;;;;8.60;5.55;;;17.90;99.90;;;;;;5109134;28;20039;-87
2022/10/08 03:38:51;;;;;;;8.32;6.20;;;17.70;99.90;;;;;;5093183;28;20032;-87
2022/10/08 03:41:17;;;;;;;9.93;5.80;;;17.80;99.90;;;;;;5075664;28;20383;-86
2022/10/08 03:43:44;;;;;;;6.40;5.80;;;17.90;99.90;;;;;;5075127;28;20036;-87
2022/10/08 03:46:12;;;;;;;9.10;5.90;;;17.90;99.90;;;;;;5108794;28;20103;-86
2022/10/08 03:48:38;;;;;;;10.05;7.00;;;17.80;99.90;;;;;;5093268;28;20054;-86
2022/10/08 03:51:09;;;;;;;8.70;6.45;;;17.80;99.90;;;;;;5093325;28;20024;-87
2022/10/08 03:53:36;;;;;;;9.40;6.53;;;17.70;99.90;;;;;;5092862;28;20024;-86
2022/10/08 03:56:04;;;;;;;8.85;6.80;;;17.70;99.90;;;;;;5108105;28;20020;-86
2022/10/08 03:58:29;;;;;;;7.32;6.63;;;17.80;99.90;;;;;;5093189;28;20111;-86
2022/10/08 04:00:57;;;;;;;9.70;7.30;;;17.70;99.90;;;;;;5093072;28;20067;-86
2022/10/08 04:03:22;;;;;;;8.82;6.72;;;17.60;99.90;;;;;;5116698;27;20372;-86
2022/10/08 04:05:49;;;;;;;7.38;6.68;;;17.60;99.90;;;;;;5115332;27;20027;-86
2022/10/08 04:08:14;;;;;;;8.45;6.55;;;17.70;99.90;;;;;;5133653;27;20038;-85
2022/10/08 04:10:40;;;;;;;11.38;7.70;;;17.80;99.90;;;;;;5133968;27;20023;-86
2022/10/08 04:13:06;;;;;;;11.27;7.88;;;17.70;99.90;;;;;;5133769;27;20023;-86
2022/10/08 04:15:31;;;;;;;11.65;8.00;;;17.70;99.90;;;;;;5133674;27;20156;-86
2022/10/08 04:17:57;;;;;;;9.63;8.20;;;17.70;99.90;;;;;;5133778;27;20125;-86
2022/10/08 04:20:23;;;;;;;11.07;7.43;;;17.40;99.90;;;;;;5133882;27;20095;-86
2022/10/08 04:22:48;;;;;;;11.02;8.05;;;17.50;99.90;;;;;;5133224;27;20119;-86
2022/10/08 04:25:14;;;;;;;8.68;7.55;;;17.50;99.90;;;;;;5133643;27;20050;-87
2022/10/08 04:27:40;;;;;;;8.10;7.30;;;17.60;99.90;;;;;;5133466;27;20019;-86
2022/10/08 04:30:06;;;;;;;8.30;7.60;;;17.50;99.90;;;;;;5133564;27;20030;-86
2022/10/08 04:32:32;;;;;;;10.35;8.27;;;17.60;99.90;;;;;;5112784;28;20027;-86
2022/10/08 04:34:57;;;;;;;9.05;8.00;;;17.60;99.90;;;;;;5112720;28;20044;-86
2022/10/08 04:37:23;;;;;;;8.25;7.45;;;17.50;99.90;;;;;;5094601;28;20543;-86
2022/10/08 04:39:48;;;;;;;8.95;7.63;;;17.50;99.90;;;;;;5113023;28;20024;-87
2022/10/08 04:42:14;;;;;;;12.73;8.65;;;17.50;99.90;;;;;;5094605;28;20052;-86
2022/10/08 04:44:40;;;;;;;9.30;8.15;;;17.50;99.90;;;;;;5094430;28;20039;-86
2022/10/08 04:47:05;;;;;;;8.82;7.93;;;17.50;99.90;;;;;;5094434;28;20031;-86
2022/10/08 04:49:31;;;;;;;12.93;8.50;;;17.50;99.90;;;;;;5112842;28;20506;-86
2022/10/08 04:51:57;;;;;;;9.80;8.15;;;17.40;99.90;;;;;;5094456;28;20439;-87
2022/10/08 04:54:22;;;;;;;9.75;8.25;;;17.30;99.90;;;;;;5112805;28;20051;-86
2022/10/08 04:56:48;;;;;;;10.18;8.75;;;17.30;99.90;;;;;;5112854;28;20117;-86
2022/10/08 04:59:14;;;;;;;10.18;8.52;;;17.30;99.90;;;;;;5094388;28;20024;-86
2022/10/08 05:01:39;;;;;;;9.80;8.25;;;17.30;99.90;;;;;;5112818;28;20031;-86
2022/10/08 05:04:05;;;;;;;9.50;8.30;;;17.40;99.90;;;;;;5111964;28;20045;-86
2022/10/08 05:06:31;;;;;;;10.13;8.98;;;17.40;99.90;;;;;;5132728;28;20024;-86
2022/10/08 05:09:01;;;;;;;11.80;8.35;;;17.20;99.90;;;;;;5136374;27;20022;-86
2022/10/08 05:11:27;;;;;;;12.63;8.18;;;17.20;99.90;;;;;;5119165;27;20020;-86
2022/10/08 05:13:54;;;;;;;9.18;8.38;;;17.20;99.90;;;;;;5137166;27;20038;-86
2022/10/08 05:16:21;;;;;;;12.05;8.93;;;17.20;99.90;;;;;;5137541;27;20011;-86
2022/10/08 05:18:49;;;;;;;9.57;8.57;;;17.20;99.90;;;;;;5137246;27;20483;-87
2022/10/08 05:21:17;;;;;;;9.90;8.32;;;17.20;99.90;;;;;;5136761;27;20024;-86
2022/10/08 05:23:44;;;;;;;10.05;8.82;;;17.20;99.90;;;;;;5136990;27;20095;-86
2022/10/08 05:26:19;;;;;;;10.13;9.02;;;17.30;99.90;;;;;;5137481;27;20514;-86
2022/10/08 05:28:47;;;;;;;10.30;8.90;;;17.20;99.90;;;;;;5136775;27;20022;-87
2022/10/08 05:31:14;;;;;;;13.10;9.05;;;17.20;99.90;;;;;;5127587;27;20036;-86
2022/10/08 05:33:40;;;;;;;12.48;8.93;;;17.50;99.90;;;;;;5116034;28;20109;-86
2022/10/08 05:36:07;;;;;;;11.25;8.98;;;17.20;99.90;;;;;;5116087;28;20020;-86
2022/10/08 05:38:34;;;;;;;10.20;9.18;;;17.20;99.90;;;;;;5097799;28;20110;-86
2022/10/08 05:41:09;;;;;;;11.20;9.40;;;17.20;99.90;;;;;;5116065;28;20142;-87
2022/10/08 05:43:35;;;;;;;11.82;10.30;;;17.30;99.90;;;;;;5115526;28;20032;-86
2022/10/08 05:46:01;;;;;;;11.35;9.80;;;17.30;99.90;;;;;;5115279;28;20028;-86
2022/10/08 05:48:26;;;;;;;11.18;8.95;;;17.20;99.90;;;;;;5097893;28;20024;-88
2022/10/08 05:50:52;;;;;;;13.00;9.75;;;17.20;99.90;;;;;;5115352;28;20035;-86
2022/10/08 05:53:18;;;;;;;11.38;9.60;;;17.30;99.90;;;;;;5115905;28;20046;-88
2022/10/08 05:55:43;;;;;;;10.77;9.68;;;17.30;99.90;;;;;;5097794;28;20396;-88
2022/10/08 05:58:09;;;;;;;11.20;10.07;;;17.20;99.90;;;;;;5097836;28;20080;-88
2022/10/08 06:00:34;;;;;;;12.45;9.68;;;17.10;99.90;;;;;;5097586;28;20476;-89
2022/10/08 06:03:00;;;;;;;11.63;10.43;;;17.20;99.90;;;;;;5097192;28;20028;-87
2022/10/08 06:05:25;;;;;;;13.05;10.63;;;17.20;99.90;;;;;;5115892;28;20035;-89
2022/10/08 06:07:51;;;;;;;13.80;10.18;;;17.30;99.90;;;;;;5115659;28;20058;-87
2022/10/08 06:10:17;;;;;;;12.40;9.98;;;17.30;99.90;;;;;;5115327;28;20027;-87
2022/10/08 06:12:43;;;;;;;11.80;10.55;;;17.20;99.90;;;;;;5115635;28;20020;-87
2022/10/08 06:15:09;;;;;;;12.25;10.30;;;17.10;99.90;;;;;;5114998;28;20081;-86
2022/10/08 06:17:34;;;;;;;12.38;9.95;;;17.10;99.90;;;;;;5115204;28;20028;-87
2022/10/08 06:20:00;;;;;;;10.93;9.55;;;17.20;99.90;;;;;;5113898;28;20091;-87
2022/10/08 06:22:25;;;;;;;10.57;9.48;;;17.20;99.90;;;;;;5115324;28;20031;-86
2022/10/08 06:24:51;;;;;;;12.15;10.35;;;17.30;99.90;;;;;;5096790;28;20042;-86
2022/10/08 06:27:16;;;;;;;13.30;10.55;;;17.30;99.90;;;;;;5096552;28;20152;-87
2022/10/08 06:29:42;;;;;;;11.27;10.10;;;17.40;99.90;;;;;;5114773;28;20035;-86
2022/10/08 06:32:08;;;;;;;11.82;9.70;;;17.40;99.90;;;;;;5115039;28;20076;-86
2022/10/08 06:34:33;;;;;;;11.35;10.25;;;17.40;99.90;;;;;;5114183;28;20077;-87
2022/10/08 06:36:59;;;;;;;12.45;9.35;;;17.40;99.90;;;;;;5114961;28;20545;-87
2022/10/08 06:39:25;;;;;;;11.50;10.30;;;17.50;99.90;;;;;;5114944;28;20499;-87
2022/10/08 06:41:50;;;;;;;12.82;10.48;;;17.60;99.90;;;;;;5114612;28;20050;-87
2022/10/08 06:44:17;;;;;;;14.20;10.73;;;17.60;99.90;;;;;;5114577;28;20114;-86
2022/10/08 06:46:44;;;;;;;12.13;10.32;;;17.60;99.90;;;;;;5116695;28;20020;-84
2022/10/08 06:49:10;;;;;;;10.38;9.27;;;17.60;99.90;;;;;;5116391;28;20034;-84
2022/10/08 06:51:36;;;;;;;11.13;9.98;;;17.70;99.90;;;;;;5114591;28;20030;-84
2022/10/08 06:54:02;;;;;;;13.23;10.15;;;17.80;99.90;;;;;;5114516;28;20028;-84
2022/10/08 06:56:28;;;;;;;11.20;10.02;;;17.80;99.90;;;;;;5096246;28;20046;-84
2022/10/08 06:58:54;;;;;;;14.57;10.55;;;17.80;99.90;;;;;;5114429;28;20483;-84
2022/10/08 07:01:22;;;;;;;11.57;10.40;;;17.80;99.90;;;;;;5114838;28;20471;-84
2022/10/08 07:03:53;;;;;;;12.35;11.10;;;17.80;99.90;;;;;;5113719;28;20062;-83
2022/10/08 07:06:19;;;;;;;12.25;10.70;;;17.90;99.90;;;;;;5114390;28;20098;-84
2022/10/08 07:08:45;;;;;;;12.13;10.40;;;17.90;99.90;;;;;;5114251;28;20103;-84
2022/10/08 07:11:13;;;;;;;12.13;10.70;;;17.90;99.90;;;;;;5114379;28;20382;-84
2022/10/08 07:13:40;;;;;;;11.90;10.38;;;17.90;99.90;;;;;;5114403;28;20035;-84
2022/10/08 07:16:11;;;;;;;13.00;10.07;;;17.90;99.90;;;;;;5114121;28;20479;-83
2022/10/08 07:18:37;;;;;;;11.48;10.30;;;18.00;99.90;;;;;;5114145;28;20027;-84
2022/10/08 07:21:04;;;;;;;16.45;11.02;;;18.00;99.90;;;;;;5113879;28;20072;-84
2022/10/08 07:23:30;;;;;;;13.93;10.63;;;18.00;99.90;;;;;;5113797;28;20134;-84
2022/10/08 07:25:59;;;;;;;11.98;10.85;;;18.00;99.90;;;;;;5114210;28;20106;-84
2022/10/08 07:28:27;;;;;;;11.88;10.32;;;18.00;99.90;;;;;;5114236;28;20032;-83
2022/10/08 07:30:53;;;;;;;11.93;10.65;;;18.40;99.90;;;;;;5113373;28;20019;-84
2022/10/08 07:33:18;;;;;;;11.80;10.60;;;18.10;99.90;;;;;;5113533;28;20024;-84
2022/10/08 07:35:44;;;;;;;12.00;10.77;;;18.10;99.90;;;;;;5113529;28;20114;-84
2022/10/08 07:38:10;;;;;;;11.32;10.23;;;18.20;99.90;;;;;;5114111;28;20027;-83
2022/10/08 07:40:35;;;;;;;11.68;10.38;;;18.20;99.90;;;;;;5113583;28;20476;-84
2022/10/08 07:43:03;;;;;;;11.63;10.52;;;18.30;99.90;;;;;;5113458;28;20024;-84
2022/10/08 07:45:30;;;;;;;11.60;10.40;;;18.30;99.90;;;;;;5113375;28;20531;-84
2022/10/08 07:47:56;;;;;;;13.25;10.43;;;18.30;99.90;;;;;;5113391;28;20030;-84
2022/10/08 07:50:23;;;;;;;11.77;10.60;;;18.40;99.90;;;;;;5113527;28;20027;-84
2022/10/08 07:52:48;;;;;;;13.88;12.50;;;18.30;99.90;;;;;;5113421;28;20506;-83
2022/10/08 07:55:14;;;;;;;16.60;12.82;;;18.20;99.90;;;;;;5113357;28;20023;-83
2022/10/08 07:57:40;;;;;;;14.02;12.63;;;18.10;99.90;;;;;;5113314;28;20422;-83
2022/10/08 08:00:07;;;;;;;13.75;11.70;;;18.10;99.90;;;;;;5112813;28;20035;-83
2022/10/08 08:02:33;;;;;;;13.77;11.77;;;17.90;99.90;;;;;;5113359;28;20024;-83
2022/10/08 08:04:58;;;;;;;13.02;11.65;;;18.10;99.90;;;;;;5112947;28;20028;-84
2022/10/08 08:07:24;;;;;;;13.50;12.15;;;18.10;99.90;;;;;;5113186;28;20019;-84
2022/10/08 08:09:50;;;;;;;13.32;11.55;;;18.00;99.90;;;;;;5113058;28;20028;-83
2022/10/08 08:12:15;;;;;;;13.45;12.15;;;18.10;99.90;;;;;;5112946;28;20102;-84
2022/10/08 08:14:41;;;;;;;14.73;13.23;;;18.20;99.90;;;;;;5113133;28;20065;-83
2022/10/08 08:17:06;;;;;;;13.88;12.55;;;18.20;99.90;;;;;;5113016;28;20032;-84
2022/10/08 08:19:32;;;;;;;13.38;12.02;;;18.30;99.90;;;;;;5112716;28;20020;-84
2022/10/08 08:21:58;;;;;;;14.90;13.40;;;18.20;99.90;;;;;;5113196;28;20016;-84
2022/10/08 08:24:23;;;;;;;14.73;13.10;;;18.10;99.90;;;;;;5112812;28;20036;-84
2022/10/08 08:26:49;;;;;;;14.65;12.93;;;18.10;99.90;;;;;;5112892;28;20012;-84
2022/10/08 08:29:17;;;;;;;16.33;13.35;;;18.10;99.90;;;;;;5112369;28;20063;-83
2022/10/08 08:31:48;;;;;;;16.10;12.63;;;18.10;99.90;;;;;;5112526;28;20487;-83
2022/10/08 08:34:17;;;;;;;17.40;14.38;;;18.20;99.90;;;;;;5112413;28;20093;-84
2022/10/08 08:36:47;;;;;;;15.18;13.57;;;18.20;99.90;;;;;;5112557;28;20016;-84
2022/10/08 08:39:16;;;;;;;17.63;14.30;;;18.30;99.90;;;;;;5112786;28;20390;-84
2022/10/08 08:42:05;;;;;;;17.13;14.82;;;18.30;99.90;;;;;;5112474;28;20032;-84
2022/10/08 08:44:38;;;;;;;18.58;15.40;;;18.30;99.90;;;;;;5112224;28;20399;-84
2022/10/08 08:47:07;;;;;;;17.25;15.40;;;18.40;99.90;;;;;;5112617;28;20402;-84
2022/10/08 08:49:42;;;;;;;17.95;16.05;;;18.40;99.90;;;;;;5112627;28;20024;-84
2022/10/08 08:52:11;;;;;;;18.58;16.25;;;18.30;99.90;;;;;;5094558;28;20020;-84
2022/10/08 08:54:37;;;;;;;17.52;15.77;;;18.50;99.90;;;;;;5112441;28;20483;-84
2022/10/08 08:57:51;;;;;;;17.83;16.02;;;18.40;99.90;;;;;;5112513;28;20020;-84
2022/10/08 09:00:21;;;;;;;18.70;16.85;;;18.30;99.90;;;;;;5112425;28;20114;-84
2022/10/08 09:02:55;;;;;;;19.83;17.30;;;18.30;99.90;;;;;;5112830;28;20020;-84
2022/10/08 09:05:23;;;;;;;20.40;17.90;;;18.20;99.90;;;;;;5112355;28;20129;-84
2022/10/08 09:07:55;;;;;;;21.10;17.95;;;18.10;99.90;;;;;;5112373;28;20036;-83
2022/10/08 09:10:38;;;;;;;22.05;17.42;;;17.90;99.90;;;;;;5112340;28;20020;-84
2022/10/08 09:13:30;;;;;;;17.88;15.60;;;17.70;99.90;;;;;;5111937;28;20467;-84
2022/10/08 09:15:56;;;;;;;17.13;14.60;;;17.70;99.90;;;;;;5093962;28;20368;-83
2022/10/08 09:18:22;;;;;;;15.80;14.23;;;17.70;99.90;;;;;;5112651;28;20036;-84
2022/10/08 09:20:48;;;;;;;14.60;13.25;;;17.70;99.90;;;;;;5112252;28;20023;-84
2022/10/08 09:23:20;;;;;;;15.35;13.85;;;17.70;99.90;;;;;;5111958;28;20139;-84
2022/10/08 09:25:59;;;;;;;15.75;14.15;;;17.80;99.90;;;;;;5112982;28;20024;-84
2022/10/08 09:28:54;;;;;;;14.68;12.52;;;17.90;99.90;;;;;;5112288;28;20032;-84
2022/10/08 09:31:25;;;;;;;16.17;14.52;;;17.90;99.90;;;;;;5112500;28;20023;-84
2022/10/08 09:34:02;;;;;;;15.68;14.07;;;17.90;99.90;;;;;;5111828;28;20542;-84
2022/10/08 09:36:35;;;;;;;15.20;13.43;;;18.10;99.90;;;;;;5112003;28;20489;-83
2022/10/08 09:39:03;;;;;;;14.50;13.00;;;18.30;99.90;;;;;;5112447;28;20372;-83
2022/10/08 09:41:29;;;;;;;13.95;12.50;;;18.30;99.90;;;;;;5111763;28;20024;-84
2022/10/08 09:44:15;;;;;;;14.68;13.23;;;18.60;99.90;;;;;;5112021;28;20028;-84
2022/10/08 09:46:41;;;;;;;14.98;12.00;;;18.60;99.90;;;;;;5111972;28;20034;-83
2022/10/08 09:49:26;;;;;;;13.25;11.88;;;18.60;99.90;;;;;;5111807;28;20055;-84
2022/10/08 09:51:52;;;;;;;19.38;17.50;;;18.60;99.90;;;;;;5112014;28;20106;-84
2022/10/08 09:54:27;;;;;;;20.00;17.95;;;18.70;99.90;;;;;;5112235;28;20134;-83
2022/10/08 09:56:56;;;;;;;14.38;11.30;;;18.50;99.90;;;;;;5116139;28;20454;-84
2022/10/08 09:59:26;;;;;;;12.55;11.02;;;18.50;99.90;;;;;;5115695;28;20023;-84
2022/10/08 10:01:54;;;;;;;12.43;11.10;;;18.80;99.90;;;;;;5116078;28;20034;-84
2022/10/08 10:04:35;;;;;;;12.77;11.48;;;18.70;99.90;;;;;;5115020;28;20122;-84
2022/10/08 10:07:01;;;;;;;11.90;10.70;;;18.60;99.90;;;;;;5115405;28;20015;-84
2022/10/08 10:09:43;;;;;;;12.13;10.82;;;18.50;99.90;;;;;;5115432;28;20395;-83
2022/10/08 10:12:08;;;;;;;12.60;11.38;;;18.60;99.90;;;;;;5096712;28;20406;-84
2022/10/08 10:14:50;;;;;;;13.15;11.85;;;18.60;99.90;;;;;;5115211;28;20039;-84
2022/10/08 10:17:30;;;;;;;12.85;11.60;;;18.60;99.90;;;;;;5115194;28;20100;-83
2022/10/08 10:20:00;;;;;;;14.18;12.68;;;18.50;99.90;;;;;;5115157;28;20395;-83
2022/10/08 10:22:34;;;;;;;13.38;12.07;;;18.60;99.90;;;;;;5115174;28;20028;-84
2022/10/08 10:25:08;;;;;;;13.43;12.13;;;18.80;99.90;;;;;;5096423;28;20501;-84
2022/10/08 10:28:10;;;;;;;14.07;12.68;;;18.80;99.90;;;;;;5115016;28;20465;-84
2022/10/08 10:30:56;;;;;;;13.02;11.93;;;19.10;99.90;;;;;;5114903;28;20038;-84
2022/10/08 10:33:27;;;;;;;14.32;12.40;;;19.30;99.90;;;;;;5115058;28;20020;-83
2022/10/08 10:35:58;;;;;;;13.90;12.30;;;19.40;99.90;;;;;;5115002;28;20055;-84
2022/10/08 10:38:32;;;;;;;13.77;12.48;;;19.30;99.90;;;;;;5114973;28;20023;-84
2022/10/08 10:41:14;;;;;;;15.10;13.40;;;19.00;99.90;;;;;;5114581;28;20027;-84
2022/10/08 10:43:47;;;;;;;14.05;12.75;;;19.00;99.90;;;;;;5114798;28;20039;-83
2022/10/08 10:46:15;;;;;;;14.55;13.15;;;19.10;99.90;;;;;;5115015;28;20028;-83
2022/10/08 10:48:41;;;;;;;15.98;14.40;;;18.90;99.90;;;;;;5096356;28;20533;-84
2022/10/08 10:51:10;;;;;;;18.75;15.10;;;18.90;99.90;;;;;;5114538;28;20016;-82
2022/10/08 10:53:57;;;;;;;16.35;14.65;;;19.00;99.90;;;;;;5114898;28;20102;-84
2022/10/08 10:56:26;;;;;;;16.40;14.82;;;18.90;99.90;;;;;;5114308;28;20019;-84
2022/10/08 10:59:24;;;;;;;17.13;15.23;;;19.10;99.90;;;;;;5114815;28;20034;-83
2022/10/08 11:01:59;;;;;;;15.90;14.35;;;19.20;99.90;;;;;;5100425;28;20028;-83
2022/10/08 11:04:55;;;;;;;17.33;15.57;;;19.30;99.90;;;;;;5114258;28;20065;-83
2022/10/08 11:07:22;;;;;;;17.58;16.00;;;19.50;99.90;;;;;;5114149;28;20103;-83
2022/10/08 11:10:04;;;;;;;18.00;16.10;;;19.60;99.90;;;;;;5114268;28;20020;-83
2022/10/08 11:12:53;;;;;;;18.88;17.08;;;19.60;99.90;;;;;;5114028;28;20360;-84
2022/10/08 11:15:52;;;;;;;19.40;16.30;;;19.70;99.90;;;;;;5114491;28;20027;-83
2022/10/08 11:18:29;;;;;;;17.60;15.90;;;20.00;99.90;;;;;;5114025;28;20368;-83
2022/10/08 11:21:04;;;;;;;18.50;16.58;;;20.20;99.90;;;;;;5095685;28;20455;-83
2022/10/08 11:23:44;;;;;;;17.30;15.38;;;20.00;99.90;;;;;;5114035;28;20059;-83
2022/10/08 11:26:27;;;;;;;17.67;15.82;;;20.10;99.90;;;;;;5114099;28;20437;-83
2022/10/08 11:29:23;;;;;;;17.95;16.25;;;20.10;99.90;;;;;;5113860;28;20092;-83
2022/10/08 11:31:50;;;;;;;18.63;16.73;;;20.10;99.90;;;;;;5113616;28;20047;-83
2022/10/08 11:34:22;;;;;;;18.35;16.42;;;19.90;99.90;;;;;;5113463;28;20078;-83
2022/10/08 11:37:17;;;;;;;18.65;16.70;;;19.80;99.90;;;;;;5113681;28;20028;-83
2022/10/08 11:39:55;;;;;;;20.83;16.15;;;19.70;99.90;;;;;;5113765;28;20047;-83
2022/10/08 11:43:00;;;;;;;18.00;16.08;;;19.70;99.90;;;;;;5114002;28;20077;-83
2022/10/08 11:45:33;;;;;;;17.55;15.13;;;19.70;99.90;;;;;;5110833;28;20552;-83
2022/10/08 11:48:00;;;;;;;16.80;14.70;;;19.80;99.90;;;;;;5113446;28;20033;-83
2022/10/08 11:50:36;;;;;;;16.30;14.85;;;19.90;99.90;;;;;;5113582;28;20032;-83
2022/10/08 11:53:18;;;;;;;15.95;14.23;;;20.20;99.90;;;;;;5113062;28;20035;-83
2022/10/08 11:55:54;;;;;;;15.18;12.98;;;20.10;99.90;;;;;;5114087;28;20390;-84
2022/10/08 11:58:31;;;;;;;15.88;12.75;;;20.00;99.90;;;;;;5113218;28;20073;-82
2022/10/08 12:01:09;;;;;;;14.27;12.52;;;20.20;99.90;;;;;;5113022;28;20085;-83
2022/10/08 12:03:40;;;;;;;13.98;12.55;;;20.10;99.90;;;;;;5129236;27;20023;-83
2022/10/08 12:06:14;;;;;;;14.73;12.27;;;20.00;99.90;;;;;;5113133;28;20035;-83
2022/10/08 12:08:52;;;;;;;14.45;11.52;;;20.00;99.90;;;;;;5113195;28;20077;-83
2022/10/08 12:11:38;;;;;;;14.02;11.90;;;19.70;99.90;;;;;;5113080;28;20049;-83
2022/10/08 12:14:10;;;;;;;13.85;11.60;;;19.80;99.90;;;;;;5113072;28;20471;-83
2022/10/08 12:16:48;;;;;;;14.25;11.27;;;19.70;99.90;;;;;;5112803;28;20558;-83
2022/10/08 12:19:32;;;;;;;17.67;12.40;;;19.60;99.90;;;;;;5112675;28;20136;-83
2022/10/08 12:22:23;;;;;;;15.43;11.98;;;19.50;99.90;;;;;;5112886;28;20015;-83
2022/10/08 12:25:00;;;;;;;16.38;10.80;;;19.40;99.90;;;;;;5098723;28;20050;-83
2022/10/08 12:27:36;;;;;;;14.48;11.55;;;19.40;99.90;;;;;;5112930;28;20034;-83
2022/10/08 12:30:11;;;;;;;14.48;10.85;;;19.20;99.90;;;;;;5112805;28;20068;-83
2022/10/08 12:32:42;;;;;;;13.88;10.50;;;19.10;99.90;;;;;;5092805;28;20440;-83
2022/10/08 12:35:40;;;;;;;11.93;10.27;;;18.90;99.90;;;;;;5091818;28;20515;-82
2022/10/08 12:38:08;;;;;;;15.50;9.68;;;18.80;99.90;;;;;;5092482;28;20047;-83
2022/10/08 12:40:56;;;;;;;14.32;10.82;;;18.80;99.90;;;;;;5092192;28;20096;-83
2022/10/08 12:43:28;;;;;;;13.35;10.50;;;18.80;99.90;;;;;;5107642;28;20020;-83
2022/10/08 12:45:53;;;;;;;11.98;10.13;;;18.90;99.90;;;;;;5092192;28;20030;-84
2022/10/08 12:48:32;;;;;;;18.42;10.48;;;18.90;99.90;;;;;;5092569;28;20103;-84
2022/10/08 12:51:25;;;;;;;12.40;10.45;;;18.90;99.90;;;;;;5091811;28;20119;-84
2022/10/08 12:53:52;;;;;;;13.93;10.98;;;18.80;99.90;;;;;;5092128;28;20388;-83
2022/10/08 12:56:28;;;;;;;13.80;9.85;;;18.80;99.90;;;;;;5092239;28;20024;-83
2022/10/08 12:58:57;;;;;;;15.85;10.48;;;18.80;99.90;;;;;;5092017;28;20016;-83